Time;durP1;ratioP1;P1;durP2;ratioP2;P2;SDS_P1;SDS_P2;PMS_P1;PMS_P2;Temp;Humidity;BMP_temperature;BMP_pressure;BME280_temperature;BME280_humidity;BME280_pressure;Samples;Min_cycle;Max_cycle;Signal;HPM_P1;HPM_P2
2021/01/26 00:00:47;;;;;;;9.35;4.30;;;1.60;1.00;;;;;;5053517;28;20577;-76
2021/01/26 00:03:12;;;;;;;10.45;4.90;;;1.60;1.00;;;;;;5064510;28;20257;-76
2021/01/26 00:05:38;;;;;;;9.20;4.80;;;1.60;1.00;;;;;;5073279;28;20249;-77
2021/01/26 00:08:04;;;;;;;10.87;5.27;;;;;;;;;;5073527;28;20195;-76
2021/01/26 00:10:30;;;;;;;6.13;3.95;;;;;;;;;;5073158;28;20445;-76
2021/01/26 00:12:56;;;;;;;8.97;4.30;;;;;;;;;;5071164;28;20170;-76
2021/01/26 00:15:22;;;;;;;14.47;4.80;;;;;;;;;;5073096;28;20385;-76
2021/01/26 00:17:52;;;;;;;8.32;2.58;;;1.60;1.00;;;;;;5073137;28;20470;-76
2021/01/26 00:20:19;;;;;;;7.60;4.00;;;;;;;;;;5073076;28;20163;-75
2021/01/26 00:22:45;;;;;;;7.43;3.92;;;;;;;;;;5061263;28;20207;-76
2021/01/26 00:25:16;;;;;;;4.40;3.30;;;1.60;1.00;;;;;;5067982;28;20216;-76
2021/01/26 00:27:42;;;;;;;9.48;3.38;;;1.60;1.00;;;;;;5072994;28;20171;-76
2021/01/26 00:30:10;;;;;;;8.50;3.73;;;1.60;1.00;;;;;;5072947;28;20210;-76
2021/01/26 00:32:36;;;;;;;5.85;3.70;;;;;;;;;;5062447;28;20168;-76
2021/01/26 00:35:01;;;;;;;2.83;2.05;;;1.70;1.00;;;;;;5052872;28;20242;-76
2021/01/26 00:37:27;;;;;;;5.37;3.27;;;;;;;;;;5057684;28;20262;-76
2021/01/26 00:39:53;;;;;;;3.63;2.90;;;1.70;1.00;;;;;;5072145;28;20202;-76
2021/01/26 00:42:19;;;;;;;5.90;4.00;;;;;;;;;;5069970;28;20459;-76
2021/01/26 00:44:45;;;;;;;3.08;2.72;;;1.70;1.00;;;;;;5072555;28;20618;-75
2021/01/26 00:47:11;;;;;;;9.33;3.60;;;;;;;;;;5072862;28;20461;-75
2021/01/26 00:49:37;;;;;;;5.90;3.60;;;;;;;;;;5060783;28;20607;-75
2021/01/26 00:52:03;;;;;;;9.07;3.47;;;;;;;;;;5057727;28;20444;-75
2021/01/26 00:54:28;;;;;;;6.45;3.90;;;1.80;1.00;;;;;;5072870;28;20428;-76
2021/01/26 00:56:54;;;;;;;5.70;3.70;;;;;;;;;;5070696;28;20633;-75
2021/01/26 00:59:22;;;;;;;6.75;2.95;;;1.80;1.00;;;;;;5072614;28;20155;-75
2021/01/26 01:01:48;;;;;;;5.45;3.97;;;1.90;1.00;;;;;;5074211;28;20641;-75
2021/01/26 01:04:14;;;;;;;3.73;2.70;;;;;;;;;;5076727;28;20242;-75
2021/01/26 01:06:40;;;;;;;5.90;2.70;;;1.90;1.00;;;;;;5072190;28;20184;-75
2021/01/26 01:09:05;;;;;;;7.63;4.00;;;;;;;;;;5056846;28;20445;-75
2021/01/26 01:11:31;;;;;;;8.80;3.83;;;;;;;;;;5059338;28;20248;-76
2021/01/26 01:13:57;;;;;;;8.65;3.60;;;;;;;;;;5076464;28;21042;-76
2021/01/26 01:16:23;;;;;;;9.93;2.60;;;;;;;;;;5075788;28;20259;-76
2021/01/26 01:18:49;;;;;;;5.88;3.22;;;;;;;;;;5056459;28;20256;-76
2021/01/26 01:21:15;;;;;;;8.93;4.37;;;;;;;;;;5056371;28;20314;-75
2021/01/26 01:23:41;;;;;;;6.57;2.70;;;;;;;;;;5056683;28;20399;-75
2021/01/26 01:26:07;;;;;;;3.57;2.27;;;;;;;;;;5056335;28;20857;-76
2021/01/26 01:28:33;;;;;;;4.57;2.85;;;1.90;1.00;;;;;;5064702;28;20437;-76
2021/01/26 01:30:59;;;;;;;4.37;3.07;;;;;;;;;;5076004;28;20632;-75
2021/01/26 01:33:25;;;;;;;5.07;3.70;;;;;;;;;;5075668;28;20163;-75
2021/01/26 01:35:51;;;;;;;10.68;3.70;;;;;;;;;;5076102;28;20787;-75
2021/01/26 01:38:17;;;;;;;3.88;2.00;;;2.00;1.00;;;;;;5070887;28;20647;-76
2021/01/26 01:40:43;;;;;;;15.83;3.30;;;2.00;1.00;;;;;;5075844;28;20198;-75
2021/01/26 01:43:09;;;;;;;8.90;3.67;;;2.00;1.00;;;;;;5075442;28;20380;-75
2021/01/26 01:45:35;;;;;;;4.40;2.90;;;;;;;;;;5075533;28;20218;-75
2021/01/26 01:48:21;;;;;;;1.90;1.80;;;2.00;1.00;;;;;;5074171;28;20442;-76
2021/01/26 01:51:06;;;;;;;8.80;3.63;;;2.00;1.00;;;;;;5075684;28;20448;-76
2021/01/26 01:53:37;;;;;;;5.80;2.65;;;1.90;1.00;;;;;;5056061;28;20160;-75
2021/01/26 01:56:11;;;;;;;8.65;4.32;;;1.80;1.00;;;;;;5055708;28;20156;-76
2021/01/26 01:58:46;;;;;;;4.47;2.72;;;1.80;1.00;;;;;;5075112;28;20197;-76
2021/01/26 02:01:18;;;;;;;5.13;2.42;;;1.70;1.00;;;;;;5075418;28;20254;-76
2021/01/26 02:03:54;;;;;;;8.05;3.78;;;1.70;1.00;;;;;;5075713;28;20166;-76
2021/01/26 02:06:23;;;;;;;6.22;3.70;;;1.70;1.00;;;;;;5075388;28;20151;-76
2021/01/26 02:09:13;;;;;;;10.82;3.95;;;1.70;1.00;;;;;;5055356;28;20180;-75
2021/01/26 02:11:39;;;;;;;6.22;2.92;;;1.70;1.00;;;;;;5055342;28;20195;-75
2021/01/26 02:14:05;;;;;;;3.20;1.97;;;;;;;;;;5054058;28;20668;-75
2021/01/26 02:16:31;;;;;;;16.30;3.30;;;;;;;;;;5055426;28;20395;-75
2021/01/26 02:19:48;;;;;;;5.82;3.55;;;1.70;1.00;;;;;;5061296;28;20221;-75
2021/01/26 02:22:42;;;;;;;6.35;2.58;;;1.70;1.00;;;;;;5075240;28;20174;-75
2021/01/26 02:25:26;;;;;;;4.70;3.20;;;1.70;1.00;;;;;;5075208;28;20159;-76
2021/01/26 02:28:14;;;;;;;3.28;2.70;;;1.80;1.00;;;;;;5073075;28;20637;-76
2021/01/26 02:30:58;;;;;;;5.05;3.10;;;1.90;1.00;;;;;;5075030;28;20673;-76
2021/01/26 02:33:32;;;;;;;5.97;3.47;;;1.90;1.00;;;;;;5073721;28;20189;-76
2021/01/26 02:36:15;;;;;;;8.48;2.72;;;1.80;1.00;;;;;;5073468;28;20537;-76
2021/01/26 02:38:59;;;;;;;3.97;3.33;;;1.90;1.00;;;;;;5073640;28;20285;-75
2021/01/26 02:41:31;;;;;;;6.38;3.80;;;2.00;1.00;;;;;;5072740;28;20155;-75
2021/01/26 02:44:25;;;;;;;4.97;2.38;;;2.00;1.00;;;;;;5054477;28;20488;-75
2021/01/26 02:46:58;;;;;;;6.57;3.80;;;2.00;1.00;;;;;;5067080;28;20202;-75
2021/01/26 02:50:05;;;;;;;8.57;3.30;;;2.00;1.00;;;;;;5074559;28;20266;-75
2021/01/26 02:52:58;;;;;;;5.88;2.75;;;2.00;1.00;;;;;;5076087;28;20171;-75
2021/01/26 02:55:42;;;;;;;3.38;2.47;;;2.00;1.00;;;;;;5054614;28;20615;-76
2021/01/26 02:58:33;;;;;;;10.70;2.80;;;1.90;1.00;;;;;;5058773;28;20229;-76
2021/01/26 03:01:01;;;;;;;3.97;2.88;;;2.00;1.00;;;;;;5054430;28;20164;-76
2021/01/26 03:03:36;;;;;;;5.78;2.97;;;2.00;1.00;;;;;;5054718;28;20680;-76
2021/01/26 03:06:10;;;;;;;9.45;4.45;;;2.00;1.00;;;;;;5054343;28;20178;-76
2021/01/26 03:08:43;;;;;;;4.68;2.58;;;2.00;1.00;;;;;;5054619;28;20524;-75
2021/01/26 03:11:18;;;;;;;6.10;3.22;;;1.90;1.00;;;;;;5053321;28;20183;-75
2021/01/26 03:13:52;;;;;;;7.80;3.65;;;2.00;1.00;;;;;;5054287;28;20167;-75
2021/01/26 03:16:18;;;;;;;6.13;3.33;;;;;;;;;;5058781;28;20175;-75
2021/01/26 03:18:49;;;;;;;3.92;2.97;;;1.90;1.00;;;;;;5072739;28;20182;-75
2021/01/26 03:21:19;;;;;;;2.80;2.28;;;1.80;1.00;;;;;;5072009;28;20175;-75
2021/01/26 03:23:57;;;;;;;6.53;3.03;;;1.80;1.00;;;;;;5073444;28;20182;-75
2021/01/26 03:26:27;;;;;;;6.43;3.10;;;1.80;1.00;;;;;;5072342;28;20159;-75
2021/01/26 03:28:56;;;;;;;4.22;2.40;;;1.80;1.00;;;;;;5053782;28;20654;-75
2021/01/26 03:31:31;;;;;;;5.60;3.03;;;1.80;1.00;;;;;;5053898;28;20160;-75
2021/01/26 03:33:57;;;;;;;4.57;3.35;;;1.80;1.00;;;;;;5053817;28;20205;-75
2021/01/26 03:36:23;;;;;;;6.43;3.03;;;;;;;;;;5053689;28;20192;-75
2021/01/26 03:38:52;;;;;;;2.57;2.30;;;1.90;1.00;;;;;;5071919;28;20561;-75
2021/01/26 03:41:19;;;;;;;5.35;2.30;;;1.80;1.00;;;;;;5072814;28;20451;-75
2021/01/26 03:43:46;;;;;;;5.25;2.35;;;1.80;1.00;;;;;;5073027;28;20638;-76
2021/01/26 03:46:15;;;;;;;6.38;2.50;;;;;;;;;;5067919;28;20172;-76
2021/01/26 03:48:41;;;;;;;3.42;2.67;;;;;;;;;;5054117;28;20164;-76
2021/01/26 03:51:40;;;;;;;6.00;3.30;;;1.80;1.00;;;;;;5055894;28;20220;-75
2021/01/26 03:54:29;;;;;;;3.05;1.75;;;1.90;1.00;;;;;;5053349;28;20457;-75
2021/01/26 03:57:18;;;;;;;12.10;1.95;;;1.90;1.00;;;;;;5059652;28;20216;-76
2021/01/26 04:00:12;;;;;;;2.85;1.98;;;1.90;1.00;;;;;;5073314;28;20216;-76
2021/01/26 04:02:54;;;;;;;4.75;3.17;;;2.00;1.00;;;;;;5073423;28;20285;-76
2021/01/26 04:05:29;;;;;;;6.28;3.67;;;2.00;1.00;;;;;;5056484;28;20176;-76
2021/01/26 04:08:17;;;;;;;6.57;3.53;;;2.10;1.00;;;;;;5053056;28;20190;-75
2021/01/26 04:10:59;;;;;;;3.97;2.70;;;2.10;1.00;;;;;;5053543;28;20183;-76
2021/01/26 04:13:32;;;;;;;6.85;2.83;;;2.20;1.00;;;;;;5053500;28;20175;-76
2021/01/26 04:16:00;;;;;;;6.38;2.63;;;2.20;1.00;;;;;;5053149;28;20152;-76
2021/01/26 04:18:30;;;;;;;5.07;2.75;;;2.20;1.00;;;;;;5053186;28;20175;-75
2021/01/26 04:20:58;;;;;;;4.20;2.05;;;2.20;1.00;;;;;;5053173;28;20152;-75
2021/01/26 04:23:25;;;;;;;3.88;2.55;;;2.20;1.00;;;;;;5060666;28;20537;-75
2021/01/26 04:25:51;;;;;;;4.00;2.15;;;2.30;1.00;;;;;;5073268;28;20162;-76
2021/01/26 04:28:33;;;;;;;4.70;2.83;;;2.30;1.00;;;;;;5055967;28;20171;-75
2021/01/26 04:30:59;;;;;;;3.60;2.83;;;;;;;;;;5068261;28;20215;-75
2021/01/26 04:33:25;;;;;;;3.13;2.33;;;;;;;;;;5053245;28;20655;-75
2021/01/26 04:35:51;;;;;;;3.50;2.47;;;;;;;;;;5052780;28;20494;-75
2021/01/26 04:38:17;;;;;;;5.90;3.23;;;;;;;;;;5061945;28;20444;-76
2021/01/26 04:40:43;;;;;;;5.57;2.63;;;;;;;;;;5073101;28;20455;-76
2021/01/26 04:43:29;;;;;;;3.13;2.77;;;2.50;1.00;;;;;;5067789;28;20446;-76
2021/01/26 04:46:20;;;;;;;2.80;2.55;;;2.50;1.00;;;;;;5055889;28;20844;-76
2021/01/26 04:49:09;;;;;;;6.53;2.55;;;2.50;1.00;;;;;;5072659;28;20159;-76
2021/01/26 04:51:53;;;;;;;4.22;2.75;;;2.50;1.00;;;;;;5070343;28;20348;-75
2021/01/26 04:54:25;;;;;;;3.88;2.28;;;2.60;1.00;;;;;;5052816;28;20180;-75
2021/01/26 04:57:08;;;;;;;8.57;3.90;;;2.60;1.00;;;;;;5052962;28;20563;-75
2021/01/26 05:00:10;;;;;;;5.97;3.25;;;2.50;1.00;;;;;;5052680;28;20175;-75
2021/01/26 05:02:38;;;;;;;5.28;3.08;;;2.50;1.00;;;;;;5069714;28;20676;-76
2021/01/26 05:05:06;;;;;;;8.18;3.40;;;2.60;1.00;;;;;;5065610;28;20261;-78
2021/01/26 05:07:44;;;;;;;3.60;2.83;;;2.50;1.00;;;;;;5062613;28;20619;-78
2021/01/26 05:10:19;;;;;;;6.80;3.33;;;2.50;1.00;;;;;;5062427;28;20194;-81
2021/01/26 05:13:26;;;;;;;6.70;2.75;;;2.50;1.00;;;;;;5060009;28;20270;-83
2021/01/26 05:16:00;;;;;;;3.10;2.05;;;2.50;1.00;;;;;;5052075;28;20190;-76
2021/01/26 05:18:47;;;;;;;8.63;2.97;;;2.50;1.00;;;;;;5052946;28;20197;-82
2021/01/26 05:21:37;;;;;;;4.35;2.40;;;2.50;1.00;;;;;;5052577;28;20175;-76
2021/01/26 05:24:15;;;;;;;5.80;1.58;;;2.60;1.00;;;;;;5052400;28;20637;-74
2021/01/26 05:26:41;;;;;;;2.22;1.55;;;;;;;;;;5056058;28;20174;-75
2021/01/26 05:29:08;;;;;;;5.88;2.47;;;2.60;1.00;;;;;;5072402;28;20218;-83
2021/01/26 05:31:34;;;;;;;9.88;3.15;;;;;;;;;;5072413;28;20187;-75
2021/01/26 05:34:09;;;;;;;8.47;3.33;;;2.60;1.00;;;;;;5072256;28;20213;-75
2021/01/26 05:36:36;;;;;;;2.00;1.60;;;2.60;1.00;;;;;;5059325;28;20445;-83
2021/01/26 05:39:04;;;;;;;6.00;3.20;;;2.60;1.00;;;;;;5066785;28;20203;-75
2021/01/26 05:41:31;;;;;;;7.85;2.30;;;2.60;1.00;;;;;;5072165;28;20249;-76
2021/01/26 05:43:58;;;;;;;6.20;3.20;;;2.60;1.00;;;;;;5062267;28;20203;-76
2021/01/26 05:46:45;;;;;;;4.75;2.72;;;2.60;1.00;;;;;;5059527;28;20214;-76
2021/01/26 05:49:11;;;;;;;2.70;1.88;;;;;;;;;;5065274;28;20209;-75
2021/01/26 05:51:41;;;;;;;6.72;2.60;;;2.70;1.00;;;;;;5068196;28;20202;-75
2021/01/26 05:54:20;;;;;;;3.92;1.85;;;2.70;1.00;;;;;;5059396;28;20175;-76
2021/01/26 05:56:55;;;;;;;2.00;1.63;;;2.60;1.00;;;;;;5068734;28;20175;-76
2021/01/26 05:59:35;;;;;;;2.80;2.25;;;2.70;1.00;;;;;;5055529;28;20629;-76
2021/01/26 06:02:15;;;;;;;6.32;1.90;;;2.70;1.00;;;;;;5055661;28;20258;-76
2021/01/26 06:04:41;;;;;;;2.50;1.90;;;;;;;;;;5073207;28;20175;-76
2021/01/26 06:07:19;;;;;;;3.50;1.55;;;2.80;1.00;;;;;;5075386;28;20474;-76
2021/01/26 06:09:45;;;;;;;4.25;2.67;;;;;;;;;;5075752;28;20274;-76
2021/01/26 06:12:12;;;;;;;3.60;2.03;;;;;;;;;;5063760;28;20163;-75
2021/01/26 06:14:39;;;;;;;3.10;2.50;;;2.80;1.00;;;;;;5075341;28;20187;-76
2021/01/26 06:17:12;;;;;;;4.75;2.60;;;2.90;1.00;;;;;;5075278;28;20159;-76
2021/01/26 06:19:38;;;;;;;8.32;3.22;;;2.90;1.00;;;;;;5075243;28;20174;-83
2021/01/26 06:22:05;;;;;;;4.63;2.75;;;2.90;1.00;;;;;;5073636;28;20179;-75
2021/01/26 06:24:35;;;;;;;2.75;2.03;;;2.90;1.00;;;;;;5071256;28;20258;-75
2021/01/26 06:27:37;;;;;;;7.65;2.40;;;2.90;1.00;;;;;;5075554;28;20431;-75
2021/01/26 06:30:11;;;;;;;2.70;2.20;;;3.00;1.00;;;;;;5073312;28;20699;-76
2021/01/26 06:32:53;;;;;;;2.95;2.33;;;3.00;1.00;;;;;;5060652;28;20183;-75
2021/01/26 06:35:59;;;;;;;3.83;2.35;;;3.10;1.00;;;;;;5071127;28;20181;-75
2021/01/26 06:38:58;;;;;;;2.33;1.58;;;3.10;1.00;;;;;;5008429;28;20184;-75
2021/01/26 06:41:54;;;;;;;3.28;1.77;;;3.10;1.00;;;;;;5001722;28;20204;-76
2021/01/26 06:44:37;;;;;;;2.00;1.90;;;3.20;1.00;;;;;;5011129;28;20254;-75
2021/01/26 06:47:43;;;;;;;3.22;1.67;;;3.20;1.00;;;;;;5000588;28;20190;-76
2021/01/26 06:50:11;;;;;;;1.73;1.60;;;3.20;1.00;;;;;;4991304;28;20244;-76
2021/01/26 06:53:00;;;;;;;2.35;2.15;;;3.20;1.00;;;;;;4988809;28;20249;-76
2021/01/26 06:55:46;;;;;;;1.30;1.30;;;3.30;1.00;;;;;;4991670;28;20240;-75
2021/01/26 06:58:12;;;;;;;6.65;3.20;;;;;;;;;;4989698;28;20264;-76
2021/01/26 07:00:38;;;;;;;2.00;1.50;;;;;;;;;;4991966;28;20280;-75
2021/01/26 07:03:25;;;;;;;9.80;1.97;;;3.30;1.00;;;;;;4992290;28;20425;-75
2021/01/26 07:06:17;;;;;;;1.83;1.73;;;3.40;1.00;;;;;;4991950;28;20436;-75
2021/01/26 07:08:43;;;;;;;1.77;1.15;;;;;;;;;;4991474;28;20194;-76
2021/01/26 07:11:38;;;;;;;5.80;1.37;;;3.40;1.00;;;;;;4992328;28;20182;-75
2021/01/26 07:14:37;;;;;;;1.77;1.67;;;3.40;1.00;;;;;;5011979;28;20478;-75
2021/01/26 07:17:08;;;;;;;1.67;1.40;;;3.40;1.00;;;;;;5012296;28;20193;-76
2021/01/26 07:19:48;;;;;;;8.95;2.25;;;3.40;1.00;;;;;;5011967;28;20302;-75
2021/01/26 07:22:47;;;;;;;2.95;1.70;;;3.40;1.00;;;;;;5017783;28;20631;-75
2021/01/26 07:25:34;;;;;;;2.47;1.90;;;3.50;1.00;;;;;;5031859;28;20169;-75
2021/01/26 07:28:31;;;;;;;3.78;1.73;;;3.40;1.00;;;;;;5052226;28;20199;-75
2021/01/26 07:31:06;;;;;;;2.05;1.80;;;3.50;1.00;;;;;;5053934;28;20191;-75
2021/01/26 07:34:16;;;;;;;7.05;2.42;;;3.40;1.00;;;;;;5057460;28;20205;-75
2021/01/26 07:36:48;;;;;;;1.80;1.70;;;3.50;1.00;;;;;;5014066;28;20184;-75
2021/01/26 07:39:29;;;;;;;2.75;1.85;;;3.50;1.00;;;;;;5034851;28;20253;-75
2021/01/26 07:42:01;;;;;;;1.92;1.67;;;3.60;1.00;;;;;;5041429;28;20323;-75
2021/01/26 07:44:38;;;;;;;7.95;1.70;;;;;;;;;;5031161;28;20626;-75
2021/01/26 07:47:31;;;;;;;4.85;1.73;;;3.60;1.00;;;;;;5045686;28;20314;-75
2021/01/26 07:50:01;;;;;;;2.28;1.80;;;;;;;;;;5014319;28;20207;-75
2021/01/26 07:52:31;;;;;;;3.30;1.90;;;3.70;1.00;;;;;;5014495;28;20255;-76
2021/01/26 07:55:12;;;;;;;1.25;1.13;;;3.60;1.00;;;;;;5031043;28;20164;-75
2021/01/26 07:57:48;;;;;;;6.68;1.52;;;3.70;1.00;;;;;;5048145;28;20226;-75
2021/01/26 08:00:22;;;;;;;2.08;1.13;;;3.60;1.00;;;;;;5031178;28;20180;-75
2021/01/26 08:02:54;;;;;;;6.38;2.00;;;3.70;1.00;;;;;;5030730;28;20176;-75
2021/01/26 08:05:56;;;;;;;2.65;1.25;;;3.70;1.00;;;;;;5030230;28;20172;-75
2021/01/26 08:08:39;;;;;;;1.63;1.52;;;3.70;1.00;;;;;;5038504;28;20608;-75
2021/01/26 08:11:14;;;;;;;2.80;2.08;;;3.70;1.00;;;;;;5014310;28;20243;-75
2021/01/26 08:13:48;;;;;;;1.10;1.00;;;3.70;1.00;;;;;;5046181;28;20233;-75
2021/01/26 08:16:27;;;;;;;11.27;1.70;;;3.80;1.00;;;;;;5052894;28;20194;-75
2021/01/26 08:18:53;;;;;;;2.38;1.20;;;;;;;;;;5052964;28;20247;-76
2021/01/26 08:21:37;;;;;;;2.15;1.40;;;3.80;1.00;;;;;;5051819;28;20164;-76
2021/01/26 08:24:21;;;;;;;1.35;1.23;;;3.80;1.00;;;;;;5052930;28;20155;-76
2021/01/26 08:26:48;;;;;;;2.35;1.45;;;3.80;1.00;;;;;;5053185;28;20175;-75
2021/01/26 08:29:39;;;;;;;2.88;1.50;;;3.90;1.00;;;;;;5074447;28;20302;-75
2021/01/26 08:32:22;;;;;;;2.30;2.10;;;3.90;1.00;;;;;;5091618;28;20213;-76
2021/01/26 08:35:11;;;;;;;3.00;1.13;;;3.90;1.00;;;;;;5065549;28;20179;-75
2021/01/26 08:37:43;;;;;;;1.55;1.02;;;3.90;1.00;;;;;;4990986;28;20669;-75
2021/01/26 08:40:09;;;;;;;0.90;0.90;;;;;;;;;;4992563;28;20283;-75
2021/01/26 08:42:41;;;;;;;1.40;1.30;;;3.90;1.00;;;;;;4991124;28;20255;-75
2021/01/26 08:45:08;;;;;;;1.85;1.33;;;4.00;1.00;;;;;;4988688;28;20256;-75
2021/01/26 08:47:39;;;;;;;2.47;1.90;;;3.90;1.00;;;;;;4990240;28;20193;-75
2021/01/26 08:50:12;;;;;;;3.35;1.67;;;3.90;1.00;;;;;;4990599;28;20209;-75
2021/01/26 08:52:38;;;;;;;1.63;1.52;;;;;;;;;;4974624;28;20721;-75
2021/01/26 08:55:04;;;;;;;3.87;1.30;;;4.00;1.00;;;;;;4990831;28;20276;-75
2021/01/26 08:57:30;;;;;;;1.15;1.05;;;;;;;;;;4991366;28;20974;-75
2021/01/26 08:59:58;;;;;;;2.60;1.73;;;4.00;1.00;;;;;;4991064;28;20216;-75
2021/01/26 09:02:37;;;;;;;10.65;2.10;;;4.00;1.00;;;;;;4990824;28;20503;-75
2021/01/26 09:05:03;;;;;;;3.10;1.42;;;4.00;1.00;;;;;;4990964;28;20213;-75
2021/01/26 09:07:52;;;;;;;1.42;1.13;;;3.90;1.00;;;;;;4990972;28;20186;-75
2021/01/26 09:10:29;;;;;;;5.72;1.55;;;4.00;1.00;;;;;;4990907;28;20559;-75
2021/01/26 09:13:04;;;;;;;2.03;1.30;;;4.00;1.00;;;;;;4991245;28;20648;-75
2021/01/26 09:15:31;;;;;;;3.47;1.20;;;4.00;1.00;;;;;;5061089;28;20649;-75
2021/01/26 09:17:59;;;;;;;1.25;1.10;;;4.00;1.00;;;;;;5072454;28;20229;-75
2021/01/26 09:20:28;;;;;;;2.03;1.30;;;4.10;1.00;;;;;;5072119;28;20201;-76
2021/01/26 09:23:05;;;;;;;0.73;0.60;;;;;;;;;;5059877;28;20182;-75
2021/01/26 09:25:35;;;;;;;7.03;1.20;;;4.20;1.00;;;;;;5067819;28;20179;-75
2021/01/26 09:28:13;;;;;;;3.65;1.45;;;4.20;1.00;;;;;;5073386;28;20189;-75
2021/01/26 09:30:40;;;;;;;6.82;1.35;;;;;;;;;;5063439;28;20199;-76
2021/01/26 09:33:12;;;;;;;3.17;1.45;;;4.30;1.00;;;;;;5070711;28;20258;-76
2021/01/26 09:35:52;;;;;;;4.18;1.73;;;4.30;1.00;;;;;;5091065;28;20163;-75
2021/01/26 09:38:34;;;;;;;2.33;1.73;;;4.40;1.00;;;;;;5076561;28;20174;-75
2021/01/26 09:41:17;;;;;;;2.75;1.88;;;4.40;1.00;;;;;;5064781;28;20191;-75
2021/01/26 09:44:02;;;;;;;3.80;1.10;;;4.50;1.00;;;;;;5067696;28;20194;-75
2021/01/26 09:46:38;;;;;;;3.00;1.10;;;4.60;1.00;;;;;;5061264;28;20657;-75
2021/01/26 09:49:28;;;;;;;2.65;1.30;;;4.70;1.00;;;;;;5059620;28;20171;-75
2021/01/26 09:51:59;;;;;;;2.70;1.05;;;4.80;1.00;;;;;;5075039;28;20254;-75
2021/01/26 09:54:37;;;;;;;3.42;1.27;;;4.80;1.00;;;;;;5076311;28;20159;-75
2021/01/26 09:57:04;;;;;;;1.25;1.05;;;4.80;1.00;;;;;;5092220;28;20159;-75
2021/01/26 09:59:34;;;;;;;3.83;1.45;;;4.80;1.00;;;;;;5072988;28;20577;-75
2021/01/26 10:02:05;;;;;;;0.90;0.90;;;4.80;1.00;;;;;;5071404;28;20542;-75
2021/01/26 10:04:33;;;;;;;2.20;1.30;;;4.70;1.00;;;;;;5071027;28;20515;-75
2021/01/26 10:07:04;;;;;;;1.50;0.80;;;;;;;;;;5075329;28;20262;-75
2021/01/26 10:09:36;;;;;;;3.22;1.30;;;4.80;1.00;;;;;;5075406;28;20241;-75
2021/01/26 10:12:19;;;;;;;1.85;1.10;;;4.80;1.00;;;;;;5075676;28;20159;-74
2021/01/26 10:15:22;;;;;;;7.07;1.50;;;4.80;1.00;;;;;;5063672;28;20176;-75
2021/01/26 10:18:02;;;;;;;0.90;0.90;;;4.70;1.00;;;;;;5080951;28;20189;-74
2021/01/26 10:20:36;;;;;;;2.25;1.45;;;4.70;1.00;;;;;;5087372;28;20263;-74
2021/01/26 10:23:12;;;;;;;6.20;1.77;;;4.80;1.00;;;;;;5072535;28;20173;-75
2021/01/26 10:25:41;;;;;;;1.17;0.93;;;4.80;1.00;;;;;;5071731;28;20271;-75
2021/01/26 10:28:11;;;;;;;1.67;1.30;;;4.80;1.00;;;;;;5074860;28;20664;-75
2021/01/26 10:30:44;;;;;;;0.88;0.88;;;4.80;1.00;;;;;;5073017;28;20665;-75
2021/01/26 10:33:10;;;;;;;2.55;1.38;;;4.80;1.00;;;;;;5062159;28;20176;-74
2021/01/26 10:35:39;;;;;;;2.97;1.17;;;4.80;1.00;;;;;;5054957;28;20568;-75
2021/01/26 10:38:30;;;;;;;3.28;1.10;;;4.80;1.00;;;;;;5070343;28;20180;-75
2021/01/26 10:41:20;;;;;;;1.50;1.10;;;4.80;1.00;;;;;;5054712;28;20250;-75
2021/01/26 10:43:46;;;;;;;1.70;1.60;;;;;;;;;;5054887;28;20190;-75
2021/01/26 10:46:13;;;;;;;4.05;1.00;;;4.80;1.00;;;;;;5054589;28;20171;-75
2021/01/26 10:48:43;;;;;;;2.67;1.40;;;4.80;1.00;;;;;;5054404;28;20191;-75
2021/01/26 10:51:28;;;;;;;2.25;1.33;;;4.80;1.00;;;;;;5066410;28;20252;-75
2021/01/26 10:53:54;;;;;;;2.45;1.55;;;;;;;;;;5074190;28;20166;-75
2021/01/26 10:56:20;;;;;;;3.90;1.50;;;;;;;;;;5070426;28;20167;-75
2021/01/26 10:58:48;;;;;;;5.28;1.42;;;4.90;1.00;;;;;;5053534;28;20172;-74
2021/01/26 11:01:21;;;;;;;3.55;0.90;;;4.90;1.00;;;;;;5054367;28;20516;-74
2021/01/26 11:03:48;;;;;;;3.85;0.85;;;5.00;1.00;;;;;;5064249;28;20189;-74
2021/01/26 11:06:14;;;;;;;1.63;1.15;;;;;;;;;;5060434;28;20179;-75
2021/01/26 11:08:43;;;;;;;3.13;1.10;;;;;;;;;;5059946;28;20240;-75
2021/01/26 11:11:11;;;;;;;4.45;1.40;;;4.90;1.00;;;;;;5071058;28;20887;-74
2021/01/26 11:13:37;;;;;;;4.53;1.10;;;4.90;1.00;;;;;;5074385;28;20156;-75
2021/01/26 11:16:03;;;;;;;1.53;1.43;;;4.90;1.00;;;;;;5057238;28;20187;-75
2021/01/26 11:18:29;;;;;;;7.03;1.30;;;;;;;;;;5053378;28;20184;-75
2021/01/26 11:20:55;;;;;;;1.40;0.90;;;;;;;;;;5061573;28;20538;-75
2021/01/26 11:23:21;;;;;;;1.37;1.27;;;;;;;;;;5058234;28;20172;-75
2021/01/26 11:25:47;;;;;;;3.53;1.20;;;;;;;;;;5055498;28;20382;-75
2021/01/26 11:28:13;;;;;;;1.10;1.00;;;;;;;;;;5072921;28;20762;-75
2021/01/26 11:30:39;;;;;;;1.87;1.20;;;;;;;;;;5073637;28;20206;-75
2021/01/26 11:33:07;;;;;;;3.50;1.20;;;4.70;1.00;;;;;;5073604;28;20420;-75
2021/01/26 11:35:33;;;;;;;1.33;1.10;;;4.80;1.00;;;;;;5059465;28;20429;-75
2021/01/26 11:37:59;;;;;;;1.03;1.03;;;4.80;1.00;;;;;;5065954;28;20195;-75
2021/01/26 11:40:25;;;;;;;4.68;1.33;;;4.80;1.00;;;;;;5073121;28;20453;-74
2021/01/26 11:42:51;;;;;;;1.88;1.25;;;;;;;;;;5057151;28;20194;-74
2021/01/26 11:45:23;;;;;;;1.90;1.40;;;4.90;1.00;;;;;;5065202;28;20170;-74
2021/01/26 11:47:50;;;;;;;3.35;0.88;;;4.80;1.00;;;;;;5073464;28;20166;-74
2021/01/26 11:50:17;;;;;;;2.67;1.55;;;4.90;1.00;;;;;;5065249;28;20198;-74
2021/01/26 11:52:43;;;;;;;5.38;1.77;;;5.00;1.00;;;;;;5093088;28;20189;-75
2021/01/26 11:55:21;;;;;;;2.38;1.80;;;5.00;1.00;;;;;;5057100;28;20184;-75
2021/01/26 11:57:48;;;;;;;0.80;0.80;;;5.00;1.00;;;;;;5053528;28;20179;-76
2021/01/26 12:00:20;;;;;;;2.13;1.13;;;5.00;1.00;;;;;;5052817;28;20160;-75
2021/01/26 12:02:46;;;;;;;2.47;1.15;;;5.00;1.00;;;;;;5072003;28;20659;-75
2021/01/26 12:05:14;;;;;;;3.10;1.25;;;5.00;1.00;;;;;;5073257;28;20618;-75
2021/01/26 12:07:40;;;;;;;0.80;0.80;;;;;;;;;;5073222;28;20159;-75
2021/01/26 12:10:06;;;;;;;3.00;1.10;;;4.90;1.00;;;;;;5073476;28;20261;-75
2021/01/26 12:12:32;;;;;;;1.73;1.50;;;;;;;;;;5066439;28;20191;-75
2021/01/26 12:14:58;;;;;;;1.23;0.90;;;;;;;;;;5053419;28;20160;-75
2021/01/26 12:17:24;;;;;;;2.55;1.20;;;;;;;;;;5058903;28;20444;-75
2021/01/26 12:19:50;;;;;;;1.73;1.00;;;;;;;;;;5071788;28;20666;-74
2021/01/26 12:22:17;;;;;;;2.08;1.15;;;;;;;;;;5072523;28;20416;-75
2021/01/26 12:24:43;;;;;;;2.05;1.15;;;;;;;;;;5058240;28;20208;-75
2021/01/26 12:27:09;;;;;;;1.07;0.97;;;4.90;1.00;;;;;;5070865;28;20178;-75
2021/01/26 12:29:35;;;;;;;2.38;1.17;;;;;;;;;;5072024;28;20594;-75
2021/01/26 12:32:01;;;;;;;0.90;0.90;;;;;;;;;;5073292;28;20222;-75
2021/01/26 12:34:27;;;;;;;2.33;1.57;;;;;;;;;;5071534;28;20236;-75
2021/01/26 12:36:54;;;;;;;3.40;1.13;;;;;;;;;;5088377;28;20448;-75
2021/01/26 12:39:20;;;;;;;2.05;1.38;;;5.10;1.00;;;;;;5072327;28;20467;-75
2021/01/26 12:41:45;;;;;;;0.88;0.80;;;5.10;1.00;;;;;;5072829;28;20194;-75
2021/01/26 12:44:11;;;;;;;1.80;0.90;;;;;;;;;;5057010;28;20228;-75
2021/01/26 12:46:38;;;;;;;3.67;1.40;;;5.40;1.00;;;;;;5072551;28;20409;-75
2021/01/26 12:49:04;;;;;;;2.17;0.90;;;;;;;;;;5070991;28;20423;-75
2021/01/26 12:51:30;;;;;;;3.25;1.30;;;;;;;;;;5072710;28;20162;-75
2021/01/26 12:53:56;;;;;;;1.70;1.20;;;;;;;;;;5060955;28;20563;-76
2021/01/26 12:56:23;;;;;;;3.33;1.02;;;;;;;;;;5071095;28;20950;-75
2021/01/26 12:58:49;;;;;;;0.90;0.90;;;5.30;1.00;;;;;;5076888;28;20177;-75
2021/01/26 13:01:15;;;;;;;4.43;1.07;;;5.30;1.00;;;;;;5060684;28;20222;-75
2021/01/26 13:03:41;;;;;;;3.00;1.13;;;5.30;1.00;;;;;;5064401;28;20428;-74
2021/01/26 13:06:07;;;;;;;5.80;1.40;;;;;;;;;;5075046;28;20179;-75
2021/01/26 13:08:33;;;;;;;5.60;1.60;;;;;;;;;;5076597;28;20393;-75
2021/01/26 13:10:59;;;;;;;1.97;1.13;;;;;;;;;;5076225;28;20973;-75
2021/01/26 13:13:28;;;;;;;2.73;1.30;;;;;;;;;;5076867;28;20389;-74
2021/01/26 13:15:54;;;;;;;1.50;1.10;;;5.40;1.00;;;;;;5067391;28;20426;-75
2021/01/26 13:18:20;;;;;;;1.77;1.00;;;5.40;1.00;;;;;;5056405;28;20386;-75
2021/01/26 13:20:48;;;;;;;7.30;1.00;;;5.50;1.00;;;;;;5062845;28;20494;-74
2021/01/26 13:23:14;;;;;;;1.30;1.20;;;;;;;;;;5073813;28;20186;-75
2021/01/26 13:25:40;;;;;;;1.08;1.02;;;5.40;1.00;;;;;;5074843;28;20190;-74
2021/01/26 13:28:06;;;;;;;1.77;1.05;;;5.40;1.00;;;;;;5077102;28;20183;-75
2021/01/26 13:30:32;;;;;;;1.20;1.02;;;;;;;;;;5070025;28;20732;-75
2021/01/26 13:32:59;;;;;;;2.15;0.77;;;;;;;;;;5059895;28;20178;-75
2021/01/26 13:35:29;;;;;;;5.68;1.83;;;5.40;1.00;;;;;;5057350;28;20704;-75
2021/01/26 13:37:55;;;;;;;0.82;0.82;;;5.50;1.00;;;;;;5068951;28;20187;-75
2021/01/26 13:40:21;;;;;;;2.73;1.10;;;;;;;;;;5074183;28;20195;-75
2021/01/26 13:42:47;;;;;;;3.60;1.52;;;5.50;1.00;;;;;;5067900;28;20189;-75
2021/01/26 13:45:14;;;;;;;6.68;1.55;;;5.50;1.00;;;;;;5067558;28;20267;-75
2021/01/26 13:47:40;;;;;;;1.13;1.02;;;;;;;;;;5068831;28;20184;-75
2021/01/26 13:50:09;;;;;;;4.05;1.10;;;5.50;1.00;;;;;;5055586;28;20283;-76
2021/01/26 13:52:35;;;;;;;2.70;1.63;;;5.50;1.00;;;;;;5072426;28;20646;-75
2021/01/26 13:55:00;;;;;;;2.10;1.73;;;5.40;1.00;;;;;;5073322;28;20175;-77
2021/01/26 13:57:26;;;;;;;5.77;1.47;;;5.40;1.00;;;;;;5075553;28;20891;-77
2021/01/26 13:59:52;;;;;;;3.38;1.15;;;;;;;;;;5065324;28;20258;-77
2021/01/26 14:02:18;;;;;;;3.33;1.10;;;5.30;1.00;;;;;;5055485;28;20190;-76
2021/01/26 14:04:44;;;;;;;2.10;1.10;;;;;;;;;;5054639;28;20759;-76